Time;durP1;ratioP1;P1;durP2;ratioP2;P2;SDS_P1;SDS_P2;PMS_P1;PMS_P2;Temp;Humidity;BMP_temperature;BMP_pressure;BME280_temperature;BME280_humidity;BME280_pressure;Samples;Min_cycle;Max_cycle;Signal;HPM_P1;HPM_P2
2023/05/26 00:00:39;;;;;;;7.70;4.88;;;;;;;;;;6181566;23;20072;-87
2023/05/26 00:03:09;;;;;;;10.82;5.05;;;15.20;99.90;;;;;;6183155;23;20024;-89
2023/05/26 00:05:40;;;;;;;13.20;5.32;;;;;;;;;;6205596;23;20017;-87
2023/05/26 00:08:06;;;;;;;8.50;4.72;;;;;;;;;;6183031;23;20007;-88
2023/05/26 00:10:32;;;;;;;9.23;4.70;;;;;;;;;;6207524;23;19998;-86
2023/05/26 00:12:58;;;;;;;12.25;4.78;;;;;;;;;;6208858;23;20012;-88
2023/05/26 00:15:24;;;;;;;8.43;4.53;;;;;;;;;;6183635;23;20005;-87
2023/05/26 00:17:50;;;;;;;10.02;5.30;;;;;;;;;;6209247;23;20005;-87
2023/05/26 00:20:16;;;;;;;9.80;5.10;;;;;;;;;;6181584;23;20017;-85
2023/05/26 00:22:42;;;;;;;12.80;5.13;;;;;;;;;;6182235;23;20001;-85
2023/05/26 00:25:09;;;;;;;10.05;5.18;;;;;;;;;;6183755;23;20016;-89
2023/05/26 00:27:35;;;;;;;10.85;5.40;;;;;;;;;;6183646;23;20052;-90
2023/05/26 00:30:01;;;;;;;10.32;5.20;;;;;;;;;;6182789;23;20020;-86
2023/05/26 00:32:27;;;;;;;10.77;4.82;;;;;;;;;;6208660;23;19993;-87
2023/05/26 00:34:53;;;;;;;6.78;4.30;;;;;;;;;;6181922;23;20021;-89
2023/05/26 00:37:20;;;;;;;8.60;4.80;;;;;;;;;;6210108;23;20001;-88
2023/05/26 00:39:46;;;;;;;10.45;4.90;;;;;;;;;;6181820;23;20001;-90
2023/05/26 00:42:12;;;;;;;8.45;5.32;;;;;;;;;;6208629;23;19989;-87
2023/05/26 00:44:38;;;;;;;9.07;4.93;;;;;;;;;;6208470;23;20021;-88
2023/05/26 00:47:04;;;;;;;7.35;4.57;;;;;;;;;;6209332;23;20452;-88
2023/05/26 00:49:30;;;;;;;11.60;5.22;;;;;;;;;;6183734;23;19997;-88
2023/05/26 00:51:56;;;;;;;10.63;5.22;;;;;;;;;;6207710;23;20007;-88
2023/05/26 00:54:22;;;;;;;14.80;5.10;;;;;;;;;;6209567;23;19997;-87
2023/05/26 00:56:51;;;;;;;11.45;5.13;;;;;;;;;;6209925;23;20016;-87
2023/05/26 00:59:18;;;;;;;10.95;4.95;;;;;;;;;;6208915;23;19997;-86
2023/05/26 01:01:44;;;;;;;9.73;4.95;;;;;;;;;;6209525;23;20001;-88
2023/05/26 01:04:10;;;;;;;9.30;4.80;;;;;;;;;;6210739;23;20005;-90
2023/05/26 01:06:36;;;;;;;8.18;4.55;;;;;;;;;;6210960;23;20024;-89
2023/05/26 01:09:03;;;;;;;10.15;4.85;;;;;;;;;;6210024;23;19997;-87
2023/05/26 01:11:43;;;;;;;10.23;4.80;;;;;;;;;;6210232;23;20024;-87
2023/05/26 01:14:25;;;;;;;10.23;5.50;;;14.60;99.90;;;;;;6208774;23;20001;-86
2023/05/26 01:17:07;;;;;;;7.97;4.88;;;14.50;99.90;;;;;;6209268;23;19997;-88
2023/05/26 01:19:40;;;;;;;7.18;4.40;;;14.60;99.90;;;;;;6210900;23;20024;-88
2023/05/26 01:22:47;;;;;;;10.20;5.70;;;14.50;99.90;;;;;;6210169;23;20024;-89
2023/05/26 01:25:50;;;;;;;11.20;5.18;;;14.50;99.90;;;;;;6210837;23;20081;-88
2023/05/26 01:28:27;;;;;;;7.95;4.60;;;14.50;99.90;;;;;;6210324;23;20068;-89
2023/05/26 01:30:53;;;;;;;11.98;4.93;;;14.50;99.90;;;;;;6206390;23;20013;-86
2023/05/26 01:33:19;;;;;;;10.70;5.18;;;;;;;;;;6210267;23;19993;-86
2023/05/26 01:35:45;;;;;;;9.00;4.65;;;;;;;;;;6210645;23;20055;-90
2023/05/26 01:38:12;;;;;;;8.57;4.40;;;;;;;;;;6209776;23;19997;-88
2023/05/26 01:40:43;;;;;;;10.32;5.05;;;14.30;99.90;;;;;;6203842;23;19993;-89
2023/05/26 01:43:14;;;;;;;12.77;5.22;;;14.30;99.90;;;;;;6200510;23;20001;-90
2023/05/26 01:45:48;;;;;;;9.15;4.53;;;14.30;99.90;;;;;;6201763;23;20040;-89
2023/05/26 01:48:17;;;;;;;8.68;5.13;;;14.20;99.90;;;;;;6202030;23;20002;-90
2023/05/26 01:50:51;;;;;;;10.52;4.68;;;14.30;99.90;;;;;;6203674;23;20005;-88
2023/05/26 01:53:20;;;;;;;10.23;5.00;;;14.20;99.90;;;;;;6201605;23;20037;-91
2023/05/26 01:55:50;;;;;;;11.52;5.28;;;14.20;99.90;;;;;;6202116;23;20016;-88
2023/05/26 01:58:16;;;;;;;9.25;5.03;;;14.10;99.90;;;;;;6202686;23;20012;-90
2023/05/26 02:00:46;;;;;;;10.73;5.20;;;;;;;;;;6180025;23;20337;-87
2023/05/26 02:03:13;;;;;;;10.05;5.18;;;;;;;;;;6213857;23;20018;-89
2023/05/26 02:05:39;;;;;;;12.30;5.68;;;;;;;;;;6210693;23;20000;-89
2023/05/26 02:08:05;;;;;;;9.20;4.80;;;;;;;;;;6212598;23;20013;-86
2023/05/26 02:10:31;;;;;;;8.45;4.90;;;;;;;;;;6209351;23;20013;-87
2023/05/26 02:12:58;;;;;;;11.30;5.20;;;;;;;;;;6204254;23;20009;-88
2023/05/26 02:15:24;;;;;;;11.30;4.75;;;;;;;;;;6182137;23;20009;-86
2023/05/26 02:17:54;;;;;;;13.00;5.32;;;;;;;;;;6208110;23;20005;-87
2023/05/26 02:20:20;;;;;;;9.38;5.20;;;;;;;;;;6205030;23;20000;-88
2023/05/26 02:22:46;;;;;;;8.32;5.13;;;;;;;;;;6202450;23;19988;-89
2023/05/26 02:25:12;;;;;;;8.38;4.95;;;;;;;;;;6201379;23;20353;-88
2023/05/26 02:27:38;;;;;;;12.43;5.18;;;;;;;;;;6199989;23;19997;-89
2023/05/26 02:30:06;;;;;;;12.70;4.90;;;13.90;99.90;;;;;;6197529;23;20017;-91
2023/05/26 02:32:32;;;;;;;11.02;5.13;;;;;;;;;;6198496;23;20020;-92
2023/05/26 02:34:58;;;;;;;14.05;6.10;;;;;;;;;;6200738;23;20009;-89
2023/05/26 02:37:26;;;;;;;8.88;5.03;;;;;;;;;;6198926;23;20005;-89
2023/05/26 02:39:52;;;;;;;8.98;4.90;;;;;;;;;;6200498;23;20053;-88
2023/05/26 02:42:18;;;;;;;14.00;5.97;;;;;;;;;;6198416;23;20012;-90
2023/05/26 02:44:44;;;;;;;9.88;4.80;;;;;;;;;;6199948;23;20005;-90
2023/05/26 02:47:11;;;;;;;11.15;5.18;;;;;;;;;;6198304;23;20065;-89
2023/05/26 02:49:37;;;;;;;9.13;5.38;;;;;;;;;;6199055;23;20005;-87
2023/05/26 02:52:03;;;;;;;12.00;5.22;;;;;;;;;;6196641;23;20066;-90
2023/05/26 02:54:29;;;;;;;10.13;5.40;;;13.60;99.90;;;;;;6196999;23;20036;-89
2023/05/26 02:56:55;;;;;;;10.95;5.65;;;;;;;;;;6199821;23;20012;-84
2023/05/26 02:59:21;;;;;;;10.55;5.82;;;;;;;;;;6196362;23;20028;-87
2023/05/26 03:01:47;;;;;;;9.85;5.20;;;;;;;;;;6199531;23;20016;-89
2023/05/26 03:04:13;;;;;;;13.60;5.53;;;;;;;;;;6200904;23;20009;-90
2023/05/26 03:06:41;;;;;;;12.02;5.85;;;;;;;;;;6197649;23;20024;-89
2023/05/26 03:09:07;;;;;;;9.65;5.35;;;;;;;;;;6201136;23;20013;-90
2023/05/26 03:11:33;;;;;;;7.93;4.90;;;;;;;;;;6197168;23;20005;-89
2023/05/26 03:14:00;;;;;;;10.30;5.05;;;13.40;99.90;;;;;;6200018;23;20024;-90
2023/05/26 03:16:27;;;;;;;11.38;5.72;;;;;;;;;;6200332;23;20009;-89
2023/05/26 03:18:53;;;;;;;9.70;5.35;;;;;;;;;;6199904;23;20009;-89
2023/05/26 03:21:19;;;;;;;12.57;5.47;;;13.30;99.90;;;;;;6202470;23;20073;-89
2023/05/26 03:23:45;;;;;;;11.07;5.35;;;13.40;99.90;;;;;;6204229;23;20005;-91
2023/05/26 03:26:11;;;;;;;8.98;5.20;;;;;;;;;;6202622;23;20051;-89
2023/05/26 03:28:37;;;;;;;9.02;5.03;;;;;;;;;;6202618;23;20027;-91
2023/05/26 03:31:03;;;;;;;9.77;5.57;;;;;;;;;;6202805;23;20001;-90
2023/05/26 03:33:31;;;;;;;7.97;5.35;;;;;;;;;;6204274;23;20002;-91
2023/05/26 03:35:59;;;;;;;7.63;5.07;;;13.20;99.90;;;;;;6204123;23;20023;-89
2023/05/26 03:38:25;;;;;;;9.52;5.88;;;;;;;;;;6205884;23;20005;-87
2023/05/26 03:40:51;;;;;;;9.25;5.07;;;;;;;;;;6204682;23;20005;-88
2023/05/26 03:43:17;;;;;;;12.00;5.65;;;;;;;;;;6200246;23;20016;-89
2023/05/26 03:45:43;;;;;;;9.93;5.45;;;;;;;;;;6200308;23;19993;-91
2023/05/26 03:48:12;;;;;;;9.93;5.55;;;;;;;;;;6203457;23;20029;-89
2023/05/26 03:50:38;;;;;;;11.07;5.60;;;;;;;;;;6202384;23;20583;-89
2023/05/26 03:53:04;;;;;;;9.43;5.90;;;;;;;;;;6202295;23;19997;-89
2023/05/26 03:55:33;;;;;;;10.43;5.65;;;;;;;;;;6201081;23;20012;-90
2023/05/26 03:57:59;;;;;;;10.95;5.53;;;;;;;;;;6201775;23;20001;-90
2023/05/26 04:00:30;;;;;;;11.60;6.03;;;;;;;;;;6203530;23;20024;-87
2023/05/26 04:02:56;;;;;;;9.88;5.63;;;;;;;;;;6202460;23;20020;-87
2023/05/26 04:05:22;;;;;;;16.05;5.90;;;;;;;;;;6202010;23;20069;-88
2023/05/26 04:07:49;;;;;;;12.15;5.82;;;;;;;;;;6200860;23;19997;-89
2023/05/26 04:10:15;;;;;;;12.52;6.47;;;;;;;;;;6201729;23;20000;-89
2023/05/26 04:12:41;;;;;;;11.35;5.35;;;;;;;;;;6203139;23;20055;-87
2023/05/26 04:15:09;;;;;;;13.68;6.25;;;;;;;;;;6200189;23;20464;-90
2023/05/26 04:17:35;;;;;;;10.95;5.47;;;;;;;;;;6199652;23;20005;-88
2023/05/26 04:20:01;;;;;;;13.27;5.97;;;13.00;99.90;;;;;;6198451;23;20017;-89
2023/05/26 04:22:27;;;;;;;10.02;6.15;;;;;;;;;;6201487;23;20008;-88
2023/05/26 04:24:53;;;;;;;12.80;6.05;;;;;;;;;;6200804;23;20001;-89
2023/05/26 04:27:19;;;;;;;11.52;5.82;;;;;;;;;;6203726;23;20012;-89
2023/05/26 04:29:45;;;;;;;12.40;5.63;;;13.00;99.90;;;;;;6205650;23;20001;-87
2023/05/26 04:32:11;;;;;;;14.50;5.82;;;13.00;99.90;;;;;;6207752;23;19993;-87
2023/05/26 04:34:38;;;;;;;19.73;6.85;;;13.10;99.90;;;;;;6210730;23;20009;-87
2023/05/26 04:37:04;;;;;;;9.15;5.28;;;;;;;;;;6209432;23;20005;-88
2023/05/26 04:39:31;;;;;;;12.45;5.93;;;;;;;;;;6207091;23;20009;-87
2023/05/26 04:41:58;;;;;;;16.70;6.90;;;;;;;;;;6206822;23;20009;-88
2023/05/26 04:44:24;;;;;;;10.02;5.50;;;13.10;99.90;;;;;;6205291;23;20009;-88
2023/05/26 04:46:50;;;;;;;13.45;6.95;;;;;;;;;;6207693;23;20005;-89
2023/05/26 04:49:16;;;;;;;9.52;6.13;;;;;;;;;;6209131;23;20012;-85
2023/05/26 04:51:42;;;;;;;10.43;6.75;;;;;;;;;;6205011;23;20069;-87
2023/05/26 04:54:08;;;;;;;12.07;6.50;;;;;;;;;;6206317;23;20023;-87
2023/05/26 04:56:34;;;;;;;10.60;5.78;;;;;;;;;;6208265;23;20061;-85
2023/05/26 04:59:00;;;;;;;9.80;6.03;;;;;;;;;;6209897;23;19995;-88
2023/05/26 05:01:26;;;;;;;10.07;5.68;;;;;;;;;;6207806;23;20203;-89
2023/05/26 05:03:52;;;;;;;12.20;5.53;;;;;;;;;;6208327;23;20081;-86
2023/05/26 05:06:19;;;;;;;15.65;6.03;;;;;;;;;;6201771;23;20036;-87
2023/05/26 05:08:45;;;;;;;11.73;5.80;;;;;;;;;;6196016;23;20008;-85
2023/05/26 05:11:12;;;;;;;10.60;5.80;;;;;;;;;;6201095;23;20005;-87
2023/05/26 05:13:38;;;;;;;12.32;6.32;;;;;;;;;;6202857;23;19986;-87
2023/05/26 05:16:04;;;;;;;11.23;6.13;;;;;;;;;;6203783;23;20016;-88
2023/05/26 05:18:30;;;;;;;10.43;5.55;;;;;;;;;;6203237;23;20013;-84
2023/05/26 05:20:56;;;;;;;10.73;5.30;;;;;;;;;;6202687;23;19993;-85
2023/05/26 05:23:22;;;;;;;10.93;5.75;;;;;;;;;;6201993;23;20543;-84
2023/05/26 05:25:49;;;;;;;13.75;5.95;;;;;;;;;;6206532;23;20005;-86
2023/05/26 05:28:15;;;;;;;9.45;5.00;;;;;;;;;;6210006;23;20052;-86
2023/05/26 05:30:41;;;;;;;9.82;5.10;;;;;;;;;;6209132;23;20020;-86
2023/05/26 05:33:07;;;;;;;9.38;4.90;;;;;;;;;;6206130;23;19989;-85
2023/05/26 05:35:33;;;;;;;11.05;5.18;;;;;;;;;;6206428;23;20004;-88
2023/05/26 05:38:01;;;;;;;8.73;5.05;;;;;;;;;;6208920;23;20013;-86
2023/05/26 05:40:27;;;;;;;9.15;4.78;;;;;;;;;;6207430;23;20039;-87
2023/05/26 05:42:52;;;;;;;9.70;5.03;;;17.30;99.90;;;;;;6208795;23;19997;-86
2023/05/26 05:45:18;;;;;;;10.68;5.07;;;;;;;;;;6206560;23;20021;-87
2023/05/26 05:47:44;;;;;;;11.02;5.07;;;;;;;;;;6207051;23;20060;-83
2023/05/26 05:50:10;;;;;;;12.88;5.40;;;;;;;;;;6204927;23;20054;-84
2023/05/26 05:52:36;;;;;;;11.60;5.40;;;;;;;;;;6200304;23;20056;-83
2023/05/26 05:55:02;;;;;;;10.55;5.40;;;;;;;;;;6202384;23;20012;-88
2023/05/26 05:57:28;;;;;;;8.45;4.90;;;;;;;;;;6206978;23;20008;-84
2023/05/26 05:59:54;;;;;;;8.32;5.38;;;;;;;;;;6207407;23;20009;-87
2023/05/26 06:02:20;;;;;;;10.93;5.13;;;;;;;;;;6205106;23;20009;-85
2023/05/26 06:04:46;;;;;;;10.55;5.40;;;;;;;;;;6208361;23;20024;-86
2023/05/26 06:07:12;;;;;;;11.32;5.38;;;;;;;;;;6207824;23;19995;-85
2023/05/26 06:09:38;;;;;;;8.88;5.47;;;;;;;;;;6204645;23;20012;-87
2023/05/26 06:12:04;;;;;;;9.15;4.95;;;;;;;;;;6208956;23;19993;-87
2023/05/26 06:14:30;;;;;;;10.05;5.28;;;;;;;;;;6202824;23;20001;-85
2023/05/26 06:16:56;;;;;;;8.95;5.13;;;;;;;;;;6206671;23;20005;-89
2023/05/26 06:19:22;;;;;;;11.20;5.43;;;;;;;;;;6207492;23;20032;-87
2023/05/26 06:21:50;;;;;;;11.55;5.00;;;16.30;99.90;;;;;;6206604;23;20032;-87
2023/05/26 06:24:17;;;;;;;12.23;6.15;;;;;;;;;;6204757;23;20047;-85
2023/05/26 06:26:43;;;;;;;8.48;4.55;;;;;;;;;;6204138;23;19982;-88
2023/05/26 06:29:09;;;;;;;10.48;4.72;;;;;;;;;;6204084;23;19989;-86
2023/05/26 06:31:35;;;;;;;10.55;5.00;;;;;;;;;;6202016;23;20005;-85
2023/05/26 06:34:01;;;;;;;12.30;5.10;;;;;;;;;;6205271;23;20045;-87
2023/05/26 06:36:27;;;;;;;9.52;4.75;;;;;;;;;;6199094;23;20013;-86
2023/05/26 06:38:53;;;;;;;10.10;4.88;;;;;;;;;;6196420;23;19993;-90
2023/05/26 06:41:19;;;;;;;10.25;4.68;;;;;;;;;;6199167;23;20067;-87
2023/05/26 06:43:45;;;;;;;15.02;5.88;;;;;;;;;;6200719;23;20065;-90
2023/05/26 06:46:10;;;;;;;10.23;4.95;;;17.30;99.90;;;;;;6202767;23;20004;-90
2023/05/26 06:48:37;;;;;;;11.57;4.97;;;;;;;;;;6205746;23;20069;-88
2023/05/26 06:51:02;;;;;;;9.30;4.50;;;17.20;99.90;;;;;;6202523;23;19993;-89
2023/05/26 06:53:28;;;;;;;10.07;5.15;;;;;;;;;;6203675;23;19997;-87
2023/05/26 06:55:55;;;;;;;10.32;5.30;;;;;;;;;;6206014;23;20483;-87
2023/05/26 06:58:21;;;;;;;9.35;4.63;;;;;;;;;;6208234;23;19997;-89
2023/05/26 07:01:02;;;;;;;13.20;5.00;;;17.30;99.90;;;;;;6208074;23;19989;-87
2023/05/26 07:03:28;;;;;;;11.20;5.35;;;;;;;;;;6207790;23;19997;-87
2023/05/26 07:05:58;;;;;;;12.25;4.60;;;;;;;;;;6208606;23;19989;-88
2023/05/26 07:08:24;;;;;;;10.32;4.63;;;;;;;;;;6208229;23;19997;-86
2023/05/26 07:10:50;;;;;;;11.70;5.13;;;;;;;;;;6208732;23;20001;-88
2023/05/26 07:13:16;;;;;;;11.55;5.40;;;;;;;;;;6208782;23;19997;-87
2023/05/26 07:15:42;;;;;;;11.10;5.20;;;17.40;99.90;;;;;;6208704;23;20005;-88
2023/05/26 07:18:08;;;;;;;11.60;4.95;;;17.50;99.90;;;;;;6209316;23;20005;-86
2023/05/26 07:20:34;;;;;;;11.27;4.80;;;;;;;;;;6207066;23;20013;-89
2023/05/26 07:23:00;;;;;;;10.25;5.05;;;;;;;;;;6205675;23;20032;-86
2023/05/26 07:25:26;;;;;;;13.20;5.10;;;;;;;;;;6204698;23;20028;-89
2023/05/26 07:27:53;;;;;;;11.90;4.95;;;;;;;;;;6208133;23;20005;-90
2023/05/26 07:30:19;;;;;;;10.15;4.28;;;;;;;;;;6206640;23;20027;-88
2023/05/26 07:32:45;;;;;;;11.43;5.18;;;;;;;;;;6207581;23;20016;-87
2023/05/26 07:35:12;;;;;;;12.38;4.93;;;;;;;;;;6206580;23;19993;-86
2023/05/26 07:37:38;;;;;;;8.32;4.63;;;;;;;;;;6208202;23;19993;-87
2023/05/26 07:40:04;;;;;;;11.93;4.90;;;;;;;;;;6206781;23;20008;-87
2023/05/26 07:42:31;;;;;;;12.63;4.93;;;;;;;;;;6208201;23;20009;-89
2023/05/26 07:44:57;;;;;;;7.15;4.43;;;;;;;;;;6208005;23;20025;-88
2023/05/26 07:47:23;;;;;;;12.95;4.95;;;;;;;;;;6206729;23;20016;-87
2023/05/26 07:49:49;;;;;;;9.65;5.03;;;;;;;;;;6208083;23;20021;-86
2023/05/26 07:52:15;;;;;;;9.05;4.82;;;;;;;;;;6204533;23;19990;-85
2023/05/26 07:54:42;;;;;;;9.82;4.75;;;;;;;;;;6206800;23;20013;-88
2023/05/26 07:57:08;;;;;;;13.73;4.80;;;;;;;;;;6202290;23;20009;-88
2023/05/26 07:59:34;;;;;;;14.48;4.90;;;;;;;;;;6204059;23;20134;-88
2023/05/26 08:02:00;;;;;;;13.48;5.05;;;;;;;;;;6177225;23;20005;-87
2023/05/26 08:04:26;;;;;;;12.27;5.05;;;;;;;;;;6208431;23;20025;-87
2023/05/26 08:06:52;;;;;;;10.98;4.63;;;;;;;;;;6208839;23;19997;-86
2023/05/26 08:09:18;;;;;;;11.43;4.93;;;;;;;;;;6184236;23;19997;-88
2023/05/26 08:11:44;;;;;;;9.50;4.65;;;;;;;;;;6207721;23;20013;-88
2023/05/26 08:14:10;;;;;;;11.40;4.20;;;;;;;;;;6208944;23;20010;-87
2023/05/26 08:16:39;;;;;;;8.95;4.72;;;;;;;;;;6209301;23;19997;-88
2023/05/26 08:19:05;;;;;;;10.15;4.70;;;19.30;98.40;;;;;;6203246;23;20028;-86
2023/05/26 08:21:31;;;;;;;10.13;4.75;;;;;;;;;;6202982;23;20065;-88
2023/05/26 08:23:57;;;;;;;12.30;4.28;;;;;;;;;;6199613;23;20068;-89
2023/05/26 08:26:23;;;;;;;9.27;4.60;;;;;;;;;;6199102;23;20031;-88
2023/05/26 08:28:49;;;;;;;8.85;5.03;;;;;;;;;;6195461;23;20009;-88
2023/05/26 08:31:15;;;;;;;9.25;4.65;;;;;;;;;;6196731;23;20028;-90
2023/05/26 08:33:41;;;;;;;8.50;4.55;;;;;;;;;;6193862;23;20008;-89
2023/05/26 08:36:07;;;;;;;11.07;4.80;;;;;;;;;;6195707;23;20009;-88
2023/05/26 08:38:33;;;;;;;9.57;4.82;;;;;;;;;;6196440;23;20048;-90
2023/05/26 08:41:01;;;;;;;11.27;4.32;;;20.10;96.70;;;;;;6197755;23;20001;-89
2023/05/26 08:43:45;;;;;;;8.98;4.32;;;20.10;96.60;;;;;;6200441;23;20012;-89
2023/05/26 08:46:12;;;;;;;9.93;4.38;;;20.20;96.80;;;;;;6196111;23;20009;-90
2023/05/26 08:48:39;;;;;;;8.55;4.38;;;20.30;96.40;;;;;;6197256;23;20016;-89
2023/05/26 08:51:08;;;;;;;9.90;5.03;;;20.40;96.20;;;;;;6192747;23;20056;-85
2023/05/26 08:53:35;;;;;;;13.85;4.60;;;;;;;;;;6195103;23;20001;-87
2023/05/26 08:56:01;;;;;;;9.60;5.20;;;;;;;;;;6191012;23;20417;-89
2023/05/26 08:58:29;;;;;;;9.02;4.32;;;20.50;96.00;;;;;;6198992;23;20005;-90
2023/05/26 09:00:56;;;;;;;8.50;4.45;;;;;;;;;;6174569;23;20009;-88
2023/05/26 09:03:22;;;;;;;8.63;4.32;;;;;;;;;;6200814;23;20005;-88
2023/05/26 09:05:48;;;;;;;15.30;5.03;;;;;;;;;;6196102;23;20020;-89
2023/05/26 09:08:15;;;;;;;8.00;4.13;;;;;;;;;;6200006;23;20013;-88
2023/05/26 09:10:41;;;;;;;8.45;4.20;;;;;;;;;;6201054;23;20008;-87
2023/05/26 09:13:08;;;;;;;8.55;4.28;;;20.90;94.50;;;;;;6199234;23;20053;-87
2023/05/26 09:15:38;;;;;;;9.18;4.38;;;21.00;93.80;;;;;;6198739;23;20016;-87
2023/05/26 09:18:09;;;;;;;7.80;4.25;;;21.00;94.20;;;;;;6199394;23;20005;-87
2023/05/26 09:20:46;;;;;;;8.20;4.30;;;21.10;94.10;;;;;;6197015;23;20005;-88
2023/05/26 09:23:14;;;;;;;9.77;4.40;;;21.10;94.40;;;;;;6196906;23;20482;-89
2023/05/26 09:25:41;;;;;;;8.52;3.85;;;;;;;;;;6194066;23;20113;-88
2023/05/26 09:28:09;;;;;;;7.57;3.83;;;21.20;93.70;;;;;;6190918;23;20005;-86
2023/05/26 09:30:40;;;;;;;7.80;4.20;;;21.10;92.60;;;;;;6192292;23;20384;-84
2023/05/26 09:33:10;;;;;;;8.27;4.05;;;21.30;92.20;;;;;;6193842;23;20009;-87
2023/05/26 09:35:39;;;;;;;8.37;4.47;;;21.40;92.70;;;;;;6164661;23;20025;-84
2023/05/26 09:38:07;;;;;;;6.18;3.85;;;21.40;93.10;;;;;;6192619;23;20065;-87
2023/05/26 09:40:34;;;;;;;7.20;4.00;;;;;;;;;;6192437;23;20005;-85
2023/05/26 09:43:01;;;;;;;11.38;4.50;;;21.40;93.20;;;;;;6193757;23;20009;-90
2023/05/26 09:45:34;;;;;;;6.97;4.07;;;21.50;93.10;;;;;;6191545;23;20013;-88
2023/05/26 09:48:00;;;;;;;8.55;4.32;;;;;;;;;;6192365;23;20032;-86
2023/05/26 09:50:30;;;;;;;9.30;4.30;;;21.60;92.50;;;;;;6193307;23;20005;-89
2023/05/26 09:52:57;;;;;;;7.38;4.22;;;21.70;92.80;;;;;;6206022;23;20490;-88
2023/05/26 09:55:23;;;;;;;6.88;4.05;;;;;;;;;;6207816;23;20011;-87
2023/05/26 09:57:51;;;;;;;9.10;4.40;;;21.90;92.40;;;;;;6208505;23;20001;-87
2023/05/26 10:00:19;;;;;;;9.95;4.18;;;21.90;92.40;;;;;;6208903;23;19993;-86
2023/05/26 10:02:46;;;;;;;10.63;4.38;;;;;;;;;;6211647;23;19989;-88
2023/05/26 10:05:12;;;;;;;8.85;4.63;;;;;;;;;;6209998;23;20020;-89
2023/05/26 10:07:40;;;;;;;10.40;4.72;;;;;;;;;;6209347;23;19993;-88
2023/05/26 10:10:06;;;;;;;9.32;4.57;;;;;;;;;;6210404;23;20004;-89
2023/05/26 10:12:33;;;;;;;8.02;4.32;;;;;;;;;;6210425;23;19992;-88
2023/05/26 10:14:59;;;;;;;7.07;4.50;;;;;;;;;;6210139;23;19993;-87
2023/05/26 10:17:26;;;;;;;10.05;4.78;;;;;;;;;;6205246;23;20497;-86
2023/05/26 10:19:54;;;;;;;8.70;4.35;;;22.30;91.90;;;;;;6196976;23;20088;-87
2023/05/26 10:22:35;;;;;;;7.68;3.97;;;;;;;;;;6194071;23;20015;-87
2023/05/26 10:25:03;;;;;;;9.88;4.60;;;;;;;;;;6195951;23;20028;-87
2023/05/26 10:27:45;;;;;;;11.27;4.30;;;;;;;;;;6196575;23;20004;-88
2023/05/26 10:30:12;;;;;;;7.75;4.38;;;;;;;;;;6195515;23;20005;-86
2023/05/26 10:32:44;;;;;;;9.57;4.47;;;;;;;;;;6195981;23;20001;-87
2023/05/26 10:35:32;;;;;;;8.00;4.30;;;22.40;90.70;;;;;;6195687;23;20321;-89
2023/05/26 10:38:01;;;;;;;9.23;4.20;;;;;;;;;;6197010;23;20013;-89
2023/05/26 10:40:31;;;;;;;11.15;4.70;;;;;;;;;;6202360;23;20012;-87
2023/05/26 10:43:01;;;;;;;7.10;4.50;;;22.30;90.60;;;;;;6211502;23;20001;-87
2023/05/26 10:45:32;;;;;;;7.88;4.40;;;22.40;90.60;;;;;;6211284;23;20009;-86
2023/05/26 10:47:59;;;;;;;9.02;4.45;;;;;;;;;;6210996;23;19990;-86
2023/05/26 10:50:25;;;;;;;10.93;4.50;;;;;;;;;;6211521;23;20001;-85
2023/05/26 10:52:51;;;;;;;9.07;5.13;;;;;;;;;;6210988;23;20014;-88
2023/05/26 10:55:31;;;;;;;13.93;4.40;;;;;;;;;;6210526;23;20012;-85
2023/05/26 10:58:17;;;;;;;8.15;4.97;;;;;;;;;;6205269;23;20425;-85
2023/05/26 11:00:44;;;;;;;8.57;4.45;;;;;;;;;;6196598;23;20001;-87
2023/05/26 11:03:29;;;;;;;11.75;4.32;;;;;;;;;;6196633;23;19997;-86
2023/05/26 11:05:55;;;;;;;11.30;4.10;;;;;;;;;;6192608;23;20025;-87
2023/05/26 11:08:25;;;;;;;7.75;4.72;;;;;;;;;;6191918;23;19997;-87
2023/05/26 11:11:11;;;;;;;12.18;4.82;;;22.80;90.20;;;;;;6193230;23;20016;-86
2023/05/26 11:13:43;;;;;;;9.35;4.03;;;;;;;;;;6196022;23;20005;-87
2023/05/26 11:16:25;;;;;;;9.77;4.72;;;23.00;89.60;;;;;;6193410;23;20001;-88
2023/05/26 11:18:57;;;;;;;11.07;4.20;;;23.30;90.20;;;;;;6187779;23;20001;-86
2023/05/26 11:21:27;;;;;;;10.80;5.07;;;23.30;90.00;;;;;;6191153;23;20780;-85
2023/05/26 11:23:56;;;;;;;10.35;4.47;;;23.50;89.60;;;;;;6194651;23;20005;-88
2023/05/26 11:26:25;;;;;;;7.25;4.32;;;;;;;;;;6192904;23;20024;-88
2023/05/26 11:28:52;;;;;;;10.52;4.50;;;;;;;;;;6192024;23;20001;-87
2023/05/26 11:31:21;;;;;;;7.40;4.60;;;23.40;86.90;;;;;;6190249;23;20001;-88
2023/05/26 11:33:48;;;;;;;9.55;4.45;;;;;;;;;;6189357;23;20002;-90
2023/05/26 11:36:18;;;;;;;8.85;4.57;;;23.30;88.20;;;;;;6190301;23;20318;-87
2023/05/26 11:38:46;;;;;;;10.43;4.75;;;23.20;87.70;;;;;;6191736;23;20005;-88
2023/05/26 11:41:15;;;;;;;12.13;4.68;;;23.20;88.00;;;;;;6188635;23;20005;-88
2023/05/26 11:43:41;;;;;;;11.38;4.78;;;;;;;;;;6190957;23;20001;-88
2023/05/26 11:46:09;;;;;;;9.65;4.68;;;23.40;86.80;;;;;;6188046;23;20009;-88
2023/05/26 11:48:39;;;;;;;10.20;4.50;;;23.40;87.60;;;;;;6190455;23;20001;-88
2023/05/26 11:51:15;;;;;;;8.25;4.20;;;;;;;;;;6187890;23;20060;-89
2023/05/26 11:53:42;;;;;;;7.38;4.28;;;23.60;85.20;;;;;;6189548;23;20077;-88
2023/05/26 11:56:15;;;;;;;8.18;4.82;;;23.70;85.50;;;;;;6188460;23;20180;-88
2023/05/26 11:58:54;;;;;;;8.52;4.10;;;23.70;85.80;;;;;;6192706;23;20028;-88
2023/05/26 12:01:21;;;;;;;9.75;4.45;;;23.50;85.40;;;;;;6187169;23;20012;-90
2023/05/26 12:03:49;;;;;;;8.93;4.30;;;;;;;;;;6189260;23;20004;-87
2023/05/26 12:06:15;;;;;;;9.23;4.18;;;;;;;;;;6189561;23;20001;-88
2023/05/26 12:08:48;;;;;;;7.18;3.97;;;23.70;85.20;;;;;;6192701;23;19997;-88
2023/05/26 12:11:22;;;;;;;8.73;4.10;;;23.70;83.60;;;;;;6191131;23;20067;-87
2023/05/26 12:14:02;;;;;;;10.52;4.72;;;23.70;81.70;;;;;;6187800;23;20025;-85
2023/05/26 12:16:28;;;;;;;7.85;4.55;;;23.70;82.10;;;;;;6188587;23;20016;-88
2023/05/26 12:18:58;;;;;;;7.15;4.13;;;23.70;82.70;;;;;;6191229;23;20176;-90
2023/05/26 12:21:26;;;;;;;8.43;4.40;;;23.80;83.60;;;;;;6189118;23;20008;-87
2023/05/26 12:23:54;;;;;;;11.88;4.88;;;23.80;83.50;;;;;;6189565;23;20002;-87
2023/05/26 12:26:28;;;;;;;11.15;4.40;;;23.80;81.90;;;;;;6192176;23;20052;-86
2023/05/26 12:29:09;;;;;;;8.75;4.05;;;;;;;;;;6193220;23;20001;-87
2023/05/26 12:31:41;;;;;;;7.00;3.80;;;;;;;;;;6191906;23;20001;-87
2023/05/26 12:34:08;;;;;;;9.88;4.43;;;23.70;81.60;;;;;;6192558;23;20028;-88
2023/05/26 12:36:34;;;;;;;8.60;4.07;;;;;;;;;;6192077;23;20468;-88
2023/05/26 12:39:01;;;;;;;10.38;4.82;;;;;;;;;;6189440;23;20033;-85
2023/05/26 12:41:27;;;;;;;7.55;4.43;;;;;;;;;;6191167;23;20038;-85
2023/05/26 12:43:53;;;;;;;8.75;4.18;;;;;;;;;;6190502;23;20337;-86
2023/05/26 12:46:19;;;;;;;10.05;4.28;;;;;;;;;;6190075;23;20342;-88
2023/05/26 12:48:45;;;;;;;7.70;3.80;;;;;;;;;;6188242;23;20076;-86
2023/05/26 12:51:13;;;;;;;11.90;4.55;;;;;;;;;;6188143;23;20453;-88
2023/05/26 12:53:39;;;;;;;8.02;4.35;;;;;;;;;;6191609;23;20009;-86
2023/05/26 12:56:06;;;;;;;7.13;3.97;;;;;;;;;;6191577;23;20429;-86
2023/05/26 12:58:32;;;;;;;7.40;4.20;;;;;;;;;;6193026;23;20004;-87
2023/05/26 13:00:58;;;;;;;6.63;4.05;;;;;;;;;;6192523;23;19997;-87
2023/05/26 13:03:24;;;;;;;8.40;3.95;;;;;;;;;;6192944;23;20015;-87
2023/05/26 13:05:50;;;;;;;7.72;4.07;;;;;;;;;;6193909;23;20056;-87
2023/05/26 13:08:17;;;;;;;6.68;3.85;;;;;;;;;;6193575;23;20009;-85
2023/05/26 13:10:44;;;;;;;5.70;3.60;;;23.90;75.30;;;;;;6194449;23;20005;-87
2023/05/26 13:13:11;;;;;;;6.10;3.53;;;;;;;;;;6192788;23;20314;-86
2023/05/26 13:15:37;;;;;;;7.50;3.72;;;;;;;;;;6192619;23;20005;-88
2023/05/26 13:18:03;;;;;;;6.80;4.20;;;;;;;;;;6194232;23;20001;-88
2023/05/26 13:20:29;;;;;;;11.00;4.53;;;;;;;;;;6192309;23;20015;-86
2023/05/26 13:22:55;;;;;;;7.20;3.70;;;;;;;;;;6193307;23;20009;-87
2023/05/26 13:25:22;;;;;;;7.07;3.92;;;;;;;;;;6192518;23;20009;-87
2023/05/26 13:27:48;;;;;;;10.23;3.63;;;;;;;;;;6168672;23;20009;-86
2023/05/26 13:30:15;;;;;;;7.38;4.10;;;;;;;;;;6192817;23;20037;-85
2023/05/26 13:32:43;;;;;;;6.10;3.58;;;;;;;;;;6191264;23;20338;-87
2023/05/26 13:35:10;;;;;;;5.85;3.50;;;;;;;;;;6195380;23;20013;-86
2023/05/26 13:37:36;;;;;;;7.70;4.10;;;;;;;;;;6194304;23;20005;-88
2023/05/26 13:40:06;;;;;;;7.97;3.90;;;24.30;74.80;;;;;;6192319;23;20010;-85
2023/05/26 13:42:34;;;;;;;7.95;3.90;;;;;;;;;;6194015;23;20013;-86
2023/05/26 13:45:02;;;;;;;9.55;3.92;;;24.50;75.20;;;;;;6191486;23;20013;-87
2023/05/26 13:47:29;;;;;;;6.72;3.95;;;;;;;;;;6167340;23;20005;-87
2023/05/26 13:49:57;;;;;;;7.53;4.25;;;;;;;;;;6188467;23;20005;-85
2023/05/26 13:52:23;;;;;;;11.13;4.53;;;;;;;;;;6191162;23;20063;-85
2023/05/26 13:54:49;;;;;;;8.35;4.10;;;;;;;;;;6193059;23;20013;-87
2023/05/26 13:57:16;;;;;;;9.05;4.60;;;24.30;77.70;;;;;;6189815;23;20001;-84
2023/05/26 13:59:42;;;;;;;8.02;4.35;;;;;;;;;;6186518;23;20009;-87
2023/05/26 14:02:08;;;;;;;9.60;4.25;;;;;;;;;;6188509;23;20322;-85
2023/05/26 14:04:34;;;;;;;9.30;4.60;;;;;;;;;;6189573;23;20497;-88
2023/05/26 14:06:59;;;;;;;8.65;4.47;;;24.60;76.80;;;;;;6191185;23;20004;-86